Houlton, ME

01:56 EDT le 30 septembre 2014 (GMT -0400)
Houlton International | Change Station
CLOSE
Current Station
Aéroport
Location: Houlton,
Altitude: 492 ft
Stations météo à proximité

Alt. 492 ft 46.12 °N, 67.79 °W | Updated 21 minutes ago

Couvert
Couvert
43 ° F
Paraît 41 ° F
N
4
Vent Variable Vent de NE

Aujourd'hui
Haut(e) -- | Bas -- ° F
--% Risque de précip.
Hier
Haut(e) -- | Bas -- ° F
Precip. -- pouce
6:28 AM 6:13 PM
Lune montante, 33% visible
Pression 30.14 pouce
Visibilité 10.0 Miles terrestres
Nuages Couvert 900 ft
Refroidissement éolien 41 ° F
Point de rosée 40 ° F
Humidité 89%
Précipitations 0.00 pouce
Profondeur de la couche neigeuse Non disponible.
UV 0 sur 12
Pollen .30 sur 12
Ozone Bon
PM2.5 Bon
Flu Activity Non disponible.
SPECI KHUL 300535Z AUTO 04003KT 10SM OVC009 06/04 A3014 RMK AO2 CIG 008V012 T00610044

More Conditions Fewer Conditions

Pression 30.14 pouce
Visibilité 10.0 Miles terrestres
Nuages Couvert 900 ft
Refroidissement éolien 41 ° F
Point de rosée 40 ° F
Humidité 89%
Précipitations 0.00 pouce
Profondeur de la couche neigeuse Non disponible.
UV 0 sur 12
Pollen .30 sur 12
Ozone Bon
PM2.5 Bon
Flu Activity Non disponible.
SPECI KHUL 300535Z AUTO 04003KT 10SM OVC009 06/04 A3014 RMK AO2 CIG 008V012 T00610044

More Conditions Fewer Conditions

10-Day Weather Forecast

Almanac

Astronomie

Sep. 30, 2014 Lever Coucher
Temps réel 06:28 EDT 18:13 EDT
Crépuscule civil 05:58 EDT 18:42 EDT
Crépuscule nautique 05:23 EDT 19:17 EDT
Crépuscule astronomique 04:48 EDT 19:53 EDT
Lune 12:48 EDT 22:24 EDT
Durée de lumière visible 12h 44m
Longueur du jour
11h 44m
Tomorrow will be 3m 14s shorter.
Lune montante, 33% of the Moon is Illuminated
Aujourd'hui
Lune montante
Oct 1
Premier quartier
Oct 8
Pleine lune
Oct 15
Dernier quartier
Oct 23
Nouveau

Extrêmes aujourd'hui

State Highs State Lows

Community

WunderPhotos

Upload Photos

1,757,577 Photos téléchargées !

Nearby

Qualité de l'air

  Qualité de l'air Indice de la qualité de l'air Polluant
Hier Bon
PM2.5
Actuel Bon
PM2.5
Actuel Bon
OZONE
mardi Bon
OZONE
mardi Bon
PM2.5
mercredi Bon
OZONE
mercredi Bon
PM2.5
jeudi Bon
OZONE
jeudi Bon
PM2.5
vendredi Bon
OZONE
vendredi Bon
PM2.5
samedi Bon
OZONE
samedi Bon
PM2.5

Épaisseur de neige

Station Depth Altitude
Pas de nouvelles chutes de neige

Activité sismique

Ville Distance Mag. Time & Date
No recent earthquake activity has been reported nearby.
Minimum magnitude displayed is 2.5.

Températures des eaux côtières

Lieu Température
Aucun rapport de station

Stations météo à proximité